createdAt,value
2023-03-21T00:00:35.268Z,1004.58
2023-03-21T00:01:35.275Z,1004.56
2023-03-21T00:02:35.373Z,1004.57
2023-03-21T00:03:35.311Z,1004.62
2023-03-21T00:04:48.435Z,1004.57
2023-03-21T00:05:36.670Z,1004.55
2023-03-21T00:06:35.198Z,1004.59
2023-03-21T00:07:35.214Z,1004.57
2023-03-21T00:08:35.174Z,1004.56
2023-03-21T00:09:35.189Z,1004.59
2023-03-21T00:11:36.150Z,1004.62
2023-03-21T00:12:35.136Z,1004.56
2023-03-21T00:13:35.113Z,1004.53
2023-03-21T00:14:36.142Z,1004.58
2023-03-21T00:15:46.308Z,1004.62
2023-03-21T00:16:36.134Z,1004.55
2023-03-21T00:17:35.094Z,1004.55
2023-03-21T00:18:35.105Z,1004.58
2023-03-21T00:19:35.114Z,1004.58
2023-03-21T00:20:35.038Z,1004.55
2023-03-21T00:21:46.540Z,1004.60
2023-03-21T00:22:36.012Z,1004.54
2023-03-21T00:23:35.004Z,1004.57
2023-03-21T00:24:35.066Z,1004.54
2023-03-21T00:25:35.035Z,1004.52
2023-03-21T00:26:34.977Z,1004.53
2023-03-21T00:27:53.323Z,1004.55
2023-03-21T00:28:36.916Z,1004.53
2023-03-21T00:29:34.985Z,1004.52
2023-03-21T00:30:34.951Z,1004.51
2023-03-21T00:31:34.943Z,1004.54
2023-03-21T00:32:39.790Z,1004.53
2023-03-21T00:33:35.923Z,1004.51
2023-03-21T00:34:43.429Z,1004.50
2023-03-21T00:35:57.911Z,1004.47
2023-03-21T00:36:35.936Z,1004.48
2023-03-21T00:37:35.899Z,1004.46
2023-03-21T00:38:34.857Z,1004.47
2023-03-21T00:39:35.921Z,1004.49
2023-03-21T00:40:40.492Z,1004.45
2023-03-21T00:41:42.529Z,1004.50
2023-03-21T00:42:35.852Z,1004.48
2023-03-21T00:43:34.824Z,1004.48
2023-03-21T00:44:34.800Z,1004.52
2023-03-21T00:45:34.774Z,1004.45
2023-03-21T00:46:44.103Z,1004.48
2023-03-21T00:47:35.878Z,1004.54
2023-03-21T00:48:34.851Z,1004.51
2023-03-21T00:49:34.732Z,1004.51
2023-03-21T00:50:34.781Z,1004.54
2023-03-21T00:51:34.731Z,1004.55
2023-03-21T00:52:40.864Z,1004.59
2023-03-21T00:53:35.721Z,1004.55
2023-03-21T00:54:35.672Z,1004.62
2023-03-21T00:55:35.022Z,1004.60
2023-03-21T00:56:34.663Z,1004.60
2023-03-21T00:57:39.377Z,1004.54
2023-03-21T00:58:35.650Z,1004.58
2023-03-21T00:59:34.620Z,1004.59
2023-03-21T01:00:34.638Z,1004.55
2023-03-21T01:01:34.708Z,1004.54
2023-03-21T01:02:35.406Z,1004.56
2023-03-21T01:03:34.567Z,1004.47
2023-03-21T01:04:34.599Z,1004.49
2023-03-21T01:05:34.724Z,1004.55
2023-03-21T01:06:35.529Z,1004.50
2023-03-21T01:07:34.537Z,1004.47
2023-03-21T01:08:48.595Z,1004.52
2023-03-21T01:09:35.517Z,1004.50
2023-03-21T01:10:35.490Z,1004.54
2023-03-21T01:11:35.533Z,1004.52
2023-03-21T01:12:34.467Z,1004.48
2023-03-21T01:13:36.343Z,1004.52
2023-03-21T01:14:34.483Z,1004.56
2023-03-21T01:15:35.804Z,1004.52
2023-03-21T01:16:34.615Z,1004.51
2023-03-21T01:17:34.427Z,1004.51
2023-03-21T01:18:34.382Z,1004.49
2023-03-21T01:19:50.334Z,1004.50
2023-03-21T01:20:35.408Z,1004.53
2023-03-21T01:21:34.403Z,1004.49
2023-03-21T01:22:34.343Z,1004.51
2023-03-21T01:23:34.372Z,1004.48
2023-03-21T01:24:37.653Z,1004.51
2023-03-21T01:25:34.328Z,1004.48
2023-03-21T01:26:34.354Z,1004.47
2023-03-21T01:27:35.357Z,1004.47
2023-03-21T01:28:34.273Z,1004.48
2023-03-21T01:29:35.282Z,1004.41
2023-03-21T01:30:41.635Z,1004.46
2023-03-21T01:31:35.328Z,1004.45
2023-03-21T01:32:34.226Z,1004.43
2023-03-21T01:33:34.259Z,1004.40
2023-03-21T01:34:34.221Z,1004.45
2023-03-21T01:35:45.062Z,1004.45
2023-03-21T01:36:35.245Z,1004.39
2023-03-21T01:37:35.194Z,1004.43
2023-03-21T01:38:35.193Z,1004.42
2023-03-21T01:39:34.167Z,1004.45
2023-03-21T01:40:34.175Z,1004.43
2023-03-21T01:41:42.614Z,1004.41
2023-03-21T01:42:35.151Z,1004.39
2023-03-21T01:43:34.140Z,1004.40
2023-03-21T01:44:34.100Z,1004.42
2023-03-21T01:45:41.993Z,1004.39
2023-03-21T01:46:45.329Z,1004.40
2023-03-21T01:47:35.082Z,1004.37
2023-03-21T01:48:34.111Z,1004.38
2023-03-21T01:49:34.076Z,1004.36
2023-03-21T01:50:34.044Z,1004.36
2023-03-21T01:51:34.032Z,1004.39
2023-03-21T01:52:38.230Z,1004.40
2023-03-21T01:53:34.004Z,1004.36
2023-03-21T01:54:34.001Z,1004.35
2023-03-21T01:55:35.174Z,1004.33
2023-03-21T01:56:33.962Z,1004.32
2023-03-21T01:57:42.454Z,1004.38
2023-03-21T01:58:35.047Z,1004.36
2023-03-21T01:59:33.946Z,1004.33
2023-03-21T02:00:34.994Z,1004.34
2023-03-21T02:01:33.941Z,1004.31
2023-03-21T02:02:33.910Z,1004.31
2023-03-21T02:03:36.318Z,1004.26
2023-03-21T02:04:33.925Z,1004.25
2023-03-21T02:05:33.903Z,1004.22
2023-03-21T02:06:34.866Z,1004.26
2023-03-21T02:07:33.892Z,1004.25
2023-03-21T02:08:39.622Z,1004.29
2023-03-21T02:09:35.033Z,1004.31
2023-03-21T02:10:33.838Z,1004.31
2023-03-21T02:11:33.830Z,1004.26
2023-03-21T02:12:33.863Z,1004.27
2023-03-21T02:13:33.820Z,1004.28
2023-03-21T02:14:33.814Z,1004.21
2023-03-21T02:15:33.929Z,1004.22
2023-03-21T02:16:34.827Z,1004.19
2023-03-21T02:17:33.760Z,1004.26
2023-03-21T02:18:33.802Z,1004.13
2023-03-21T02:19:39.335Z,1004.17
2023-03-21T02:20:34.742Z,1004.16
2023-03-21T02:21:34.713Z,1004.14
2023-03-21T02:22:33.683Z,1004.13
2023-03-21T02:23:33.715Z,1004.16
2023-03-21T02:24:33.720Z,1004.15
2023-03-21T02:25:33.703Z,1004.11
2023-03-21T02:26:41.977Z,1004.14
2023-03-21T02:27:34.654Z,1004.05
2023-03-21T02:28:33.680Z,1004.07
2023-03-21T02:29:34.613Z,1004.08
2023-03-21T02:30:45.535Z,1004.09
2023-03-21T02:31:34.652Z,1004.05
2023-03-21T02:32:37.887Z,1004.06
2023-03-21T02:33:33.591Z,1004.07
2023-03-21T02:34:33.610Z,1004.02
2023-03-21T02:35:37.108Z,1004.03
2023-03-21T02:36:34.566Z,1004.06
2023-03-21T02:37:38.367Z,1004.07
2023-03-21T02:38:33.528Z,1004.02
2023-03-21T02:39:34.554Z,1004.04
2023-03-21T02:40:33.518Z,1004.04
2023-03-21T02:41:40.024Z,1004.04
2023-03-21T02:42:34.493Z,1004.02
2023-03-21T02:43:33.535Z,1004.05
2023-03-21T02:44:33.505Z,1004.06
2023-03-21T02:45:33.519Z,1004.07
2023-03-21T02:46:42.166Z,1004.01
2023-03-21T02:47:34.523Z,1004.02
2023-03-21T02:48:44.771Z,1004.06
2023-03-21T02:49:34.420Z,1004.06
2023-03-21T02:50:33.444Z,1004.03
2023-03-21T02:51:33.410Z,1004.01
2023-03-21T02:52:39.258Z,1004.05
2023-03-21T02:53:34.366Z,1004.00
2023-03-21T02:54:47.225Z,1004.00
2023-03-21T02:55:34.357Z,1004.03
2023-03-21T02:56:33.360Z,1004.06
2023-03-21T02:57:42.524Z,1003.99
2023-03-21T02:58:34.323Z,1004.02
2023-03-21T02:59:35.774Z,1003.97
2023-03-21T03:00:33.285Z,1004.03
2023-03-21T03:01:34.400Z,1003.99
2023-03-21T03:02:33.301Z,1004.00
2023-03-21T03:03:34.945Z,1003.95
2023-03-21T03:04:33.331Z,1004.02
2023-03-21T03:05:34.240Z,1004.06
2023-03-21T03:06:33.193Z,1004.01
2023-03-21T03:07:33.282Z,1004.03
2023-03-21T03:08:43.131Z,1003.97
2023-03-21T03:09:34.241Z,1003.98
2023-03-21T03:10:33.180Z,1003.94
2023-03-21T03:11:33.210Z,1004.00
2023-03-21T03:12:34.125Z,1003.91
2023-03-21T03:13:33.141Z,1003.95
2023-03-21T03:14:47.097Z,1003.95
2023-03-21T03:15:34.951Z,1003.92
2023-03-21T03:16:33.192Z,1003.87
2023-03-21T03:17:33.124Z,1003.91
2023-03-21T03:18:33.076Z,1003.89
2023-03-21T03:19:41.669Z,1003.88
2023-03-21T03:20:34.188Z,1003.86
2023-03-21T03:21:33.094Z,1003.88
2023-03-21T03:22:34.026Z,1003.91
2023-03-21T03:23:33.008Z,1003.89
2023-03-21T03:24:33.882Z,1003.88
2023-03-21T03:25:42.518Z,1003.84
2023-03-21T03:26:34.042Z,1003.86
2023-03-21T03:27:33.961Z,1003.90
2023-03-21T03:28:33.995Z,1003.86
2023-03-21T03:29:32.993Z,1003.87
2023-03-21T03:30:42.247Z,1003.89
2023-03-21T03:31:34.016Z,1003.92
2023-03-21T03:32:32.920Z,1003.85
2023-03-21T03:33:33.941Z,1003.85
2023-03-21T03:34:32.973Z,1003.81
2023-03-21T03:35:32.881Z,1003.84
2023-03-21T03:36:33.567Z,1003.84
2023-03-21T03:37:33.899Z,1003.83
2023-03-21T03:38:32.887Z,1003.85
2023-03-21T03:39:32.850Z,1003.91
2023-03-21T03:40:33.973Z,1003.88
2023-03-21T03:41:56.246Z,1003.87
2023-03-21T03:42:33.816Z,1003.87
2023-03-21T03:43:32.870Z,1003.84
2023-03-21T03:44:32.907Z,1003.85
2023-03-21T03:45:32.784Z,1003.87
2023-03-21T03:46:33.860Z,1003.89
2023-03-21T03:47:37.845Z,1003.85
2023-03-21T03:48:33.804Z,1003.89
2023-03-21T03:49:33.752Z,1003.86
2023-03-21T03:50:32.718Z,1003.84
2023-03-21T03:51:32.707Z,1003.81
2023-03-21T03:52:32.691Z,1003.87
2023-03-21T03:53:32.782Z,1003.83
2023-03-21T03:54:32.679Z,1003.81
2023-03-21T03:55:32.657Z,1003.83
2023-03-21T03:56:32.669Z,1003.82
2023-03-21T03:57:32.669Z,1003.77
2023-03-21T03:58:44.455Z,1003.82
2023-03-21T03:59:33.603Z,1003.81
2023-03-21T04:00:32.677Z,1003.78
2023-03-21T04:01:32.685Z,1003.80
2023-03-21T04:02:32.639Z,1003.81
2023-03-21T04:03:47.621Z,1003.75
2023-03-21T04:04:33.634Z,1003.73
2023-03-21T04:05:32.573Z,1003.71
2023-03-21T04:06:33.576Z,1003.68
2023-03-21T04:07:33.346Z,1003.69
2023-03-21T04:08:32.550Z,1003.69
2023-03-21T04:09:43.745Z,1003.69
2023-03-21T04:10:33.479Z,1003.67
2023-03-21T04:11:32.503Z,1003.71
2023-03-21T04:12:32.531Z,1003.68
2023-03-21T04:13:32.516Z,1003.71
2023-03-21T04:14:44.037Z,1003.67
2023-03-21T04:15:33.513Z,1003.68
2023-03-21T04:16:35.526Z,1003.65
2023-03-21T04:17:32.415Z,1003.67
2023-03-21T04:18:32.412Z,1003.65
2023-03-21T04:19:32.430Z,1003.68
2023-03-21T04:20:36.890Z,1003.66
2023-03-21T04:21:33.375Z,1003.66
2023-03-21T04:22:32.447Z,1003.73
2023-03-21T04:23:32.361Z,1003.70
2023-03-21T04:24:32.402Z,1003.70
2023-03-21T04:25:34.130Z,1003.76
2023-03-21T04:26:32.325Z,1003.73
2023-03-21T04:27:32.362Z,1003.74
2023-03-21T04:28:32.330Z,1003.75
2023-03-21T04:29:32.279Z,1003.73
2023-03-21T04:30:33.307Z,1003.72
2023-03-21T04:31:32.293Z,1003.75
2023-03-21T04:32:32.304Z,1003.72
2023-03-21T04:33:33.311Z,1003.66
2023-03-21T04:34:32.254Z,1003.67
2023-03-21T04:35:32.294Z,1003.72
2023-03-21T04:36:32.237Z,1003.76
2023-03-21T04:37:32.190Z,1003.73
2023-03-21T04:38:32.205Z,1003.71
2023-03-21T04:39:33.191Z,1003.71
2023-03-21T04:40:32.185Z,1003.73
2023-03-21T04:41:32.170Z,1003.76
2023-03-21T04:42:33.186Z,1003.75
2023-03-21T04:43:32.198Z,1003.71
2023-03-21T04:44:32.164Z,1003.74
2023-03-21T04:45:32.128Z,1003.70
2023-03-21T04:46:32.081Z,1003.71
2023-03-21T04:47:32.147Z,1003.68
2023-03-21T04:48:32.113Z,1003.66
2023-03-21T04:49:32.062Z,1003.70
2023-03-21T04:50:32.052Z,1003.67
2023-03-21T04:51:32.071Z,1003.63
2023-03-21T04:52:32.040Z,1003.70
2023-03-21T04:53:33.051Z,1003.73
2023-03-21T04:54:33.034Z,1003.68
2023-03-21T04:55:33.871Z,1003.70
2023-03-21T04:56:31.982Z,1003.72
2023-03-21T04:57:31.998Z,1003.68
2023-03-21T04:58:31.974Z,1003.73
2023-03-21T04:59:33.026Z,1003.69
2023-03-21T05:00:31.974Z,1003.70
2023-03-21T05:01:32.060Z,1003.68
2023-03-21T05:02:32.926Z,1003.67
2023-03-21T05:03:32.324Z,1003.70
2023-03-21T05:04:32.933Z,1003.63
2023-03-21T05:05:31.919Z,1003.69
2023-03-21T05:06:31.903Z,1003.64
2023-03-21T05:07:31.880Z,1003.68
2023-03-21T05:08:31.911Z,1003.66
2023-03-21T05:09:31.868Z,1003.69
2023-03-21T05:10:31.835Z,1003.66
2023-03-21T05:11:32.851Z,1003.70
2023-03-21T05:12:31.821Z,1003.65
2023-03-21T05:13:31.824Z,1003.73
2023-03-21T05:14:32.840Z,1003.69
2023-03-21T05:15:31.756Z,1003.69
2023-03-21T05:16:32.803Z,1003.69
2023-03-21T05:17:31.752Z,1003.66
2023-03-21T05:18:32.752Z,1003.70
2023-03-21T05:19:31.777Z,1003.65
2023-03-21T05:20:32.746Z,1003.72
2023-03-21T05:21:31.700Z,1003.68
2023-03-21T05:22:31.692Z,1003.67
2023-03-21T05:23:32.755Z,1003.67
2023-03-21T05:24:32.678Z,1003.67
2023-03-21T05:25:31.733Z,1003.66
2023-03-21T05:26:31.672Z,1003.72
2023-03-21T05:27:31.672Z,1003.71
2023-03-21T05:28:31.658Z,1003.69
2023-03-21T05:29:31.629Z,1003.74
2023-03-21T05:30:32.617Z,1003.75
2023-03-21T05:31:31.592Z,1003.78
2023-03-21T05:32:32.620Z,1003.73
2023-03-21T05:33:31.626Z,1003.73
2023-03-21T05:34:31.573Z,1003.77
2023-03-21T05:35:31.579Z,1003.75
2023-03-21T05:36:32.550Z,1003.83
2023-03-21T05:37:31.529Z,1003.72
2023-03-21T05:38:31.561Z,1003.73
2023-03-21T05:39:31.524Z,1003.77
2023-03-21T05:40:31.555Z,1003.72
2023-03-21T05:41:32.475Z,1003.71
2023-03-21T05:42:31.518Z,1003.67
2023-03-21T05:43:31.518Z,1003.68
2023-03-21T05:44:31.448Z,1003.71
2023-03-21T05:45:31.446Z,1003.78
2023-03-21T05:46:31.571Z,1003.66
2023-03-21T05:47:31.473Z,1003.66
2023-03-21T05:48:31.474Z,1003.62
2023-03-21T05:49:31.405Z,1003.63
2023-03-21T05:50:32.404Z,1003.71
2023-03-21T05:51:32.395Z,1003.62
2023-03-21T05:52:32.499Z,1003.68
2023-03-21T05:53:31.356Z,1003.66
2023-03-21T05:54:32.318Z,1003.64
2023-03-21T05:55:31.374Z,1003.63
2023-03-21T05:56:31.376Z,1003.69
2023-03-21T05:57:32.271Z,1003.64
2023-03-21T05:58:31.329Z,1003.63
2023-03-21T05:59:31.284Z,1003.66
2023-03-21T06:00:32.271Z,1003.61
2023-03-21T06:01:32.271Z,1003.68
2023-03-21T06:02:31.303Z,1003.69
2023-03-21T06:03:31.297Z,1003.67
2023-03-21T06:04:31.233Z,1003.69
2023-03-21T06:05:31.204Z,1003.65
2023-03-21T06:06:31.233Z,1003.70
2023-03-21T06:07:31.232Z,1003.67
2023-03-21T06:08:31.191Z,1003.66
2023-03-21T06:09:31.198Z,1003.66
2023-03-21T06:10:31.152Z,1003.67
2023-03-21T06:11:31.176Z,1003.66
2023-03-21T06:12:31.145Z,1003.60
2023-03-21T06:13:31.243Z,1003.64
2023-03-21T06:14:31.115Z,1003.57
2023-03-21T06:15:31.125Z,1003.60
2023-03-21T06:16:31.111Z,1003.64
2023-03-21T06:17:31.115Z,1003.67
2023-03-21T06:18:32.137Z,1003.63
2023-03-21T06:19:31.099Z,1003.63
2023-03-21T06:20:31.072Z,1003.61
2023-03-21T06:21:31.034Z,1003.67
2023-03-21T06:22:32.064Z,1003.68
2023-03-21T06:23:32.023Z,1003.66
2023-03-21T06:24:32.020Z,1003.70
2023-03-21T06:25:31.990Z,1003.68
2023-03-21T06:26:31.011Z,1003.70
2023-03-21T06:27:31.007Z,1003.72
2023-03-21T06:28:30.954Z,1003.75
2023-03-21T06:29:30.974Z,1003.75
2023-03-21T06:30:32.004Z,1003.78
2023-03-21T06:31:31.008Z,1003.76
2023-03-21T06:32:30.935Z,1003.76
2023-03-21T06:33:30.945Z,1003.72
2023-03-21T06:34:30.901Z,1003.74
2023-03-21T06:35:30.978Z,1003.77
2023-03-21T06:36:30.883Z,1003.76
2023-03-21T06:37:30.898Z,1003.76
2023-03-21T06:38:30.876Z,1003.74
2023-03-21T06:39:31.923Z,1003.78
2023-03-21T06:40:31.869Z,1003.78
2023-03-21T06:41:30.822Z,1003.78
2023-03-21T06:42:30.823Z,1003.81
2023-03-21T06:43:30.821Z,1003.83
2023-03-21T06:44:30.798Z,1003.87
2023-03-21T06:45:30.831Z,1003.83
2023-03-21T06:46:30.835Z,1003.81
2023-03-21T06:47:30.744Z,1003.85
2023-03-21T06:48:30.771Z,1003.90
2023-03-21T06:49:30.748Z,1003.88
2023-03-21T06:50:30.712Z,1003.89
2023-03-21T06:51:30.745Z,1003.87
2023-03-21T06:52:30.741Z,1003.89
2023-03-21T06:53:30.701Z,1003.86
2023-03-21T06:54:30.669Z,1003.93
2023-03-21T06:55:30.720Z,1003.92
2023-03-21T06:56:31.641Z,1003.93
2023-03-21T06:57:31.662Z,1003.92
2023-03-21T06:58:30.638Z,1003.96
2023-03-21T06:59:30.713Z,1003.92
2023-03-21T07:00:30.664Z,1003.89
2023-03-21T07:01:30.634Z,1003.91
2023-03-21T07:02:31.633Z,1003.95
2023-03-21T07:03:30.569Z,1003.94
2023-03-21T07:04:30.566Z,1003.83
2023-03-21T07:05:30.547Z,1003.84
2023-03-21T07:06:30.552Z,1003.91
2023-03-21T07:07:30.563Z,1003.87
2023-03-21T07:08:31.546Z,1003.91
2023-03-21T07:09:30.499Z,1003.86
2023-03-21T07:10:30.548Z,1003.83
2023-03-21T07:11:30.516Z,1003.85
2023-03-21T07:12:30.469Z,1003.81
2023-03-21T07:13:30.516Z,1003.84
2023-03-21T07:14:30.452Z,1003.81
2023-03-21T07:15:30.440Z,1003.82
2023-03-21T07:16:30.501Z,1003.84
2023-03-21T07:17:30.454Z,1003.84
2023-03-21T07:18:30.448Z,1003.79
2023-03-21T07:19:30.417Z,1003.77
2023-03-21T07:20:30.419Z,1003.78
2023-03-21T07:21:30.452Z,1003.78
2023-03-21T07:22:30.384Z,1003.83
2023-03-21T07:23:30.364Z,1003.78
2023-03-21T07:24:30.364Z,1003.80
2023-03-21T07:25:31.354Z,1003.76
2023-03-21T07:26:31.351Z,1003.77
2023-03-21T07:27:30.316Z,1003.74
2023-03-21T07:28:31.303Z,1003.70
2023-03-21T07:29:30.309Z,1003.66
2023-03-21T07:30:31.343Z,1003.71
2023-03-21T07:31:31.335Z,1003.61
2023-03-21T07:32:30.260Z,1003.60
2023-03-21T07:33:30.256Z,1003.64
2023-03-21T07:34:30.225Z,1003.59
2023-03-21T07:35:30.228Z,1003.62
2023-03-21T07:36:30.245Z,1003.67
2023-03-21T07:37:30.202Z,1003.60
2023-03-21T07:38:31.184Z,1003.69
2023-03-21T07:39:30.278Z,1003.64
2023-03-21T07:40:30.231Z,1003.64
2023-03-21T07:41:30.157Z,1003.71
2023-03-21T07:43:30.144Z,1003.69
2023-03-21T07:44:30.134Z,1003.64
2023-03-21T07:45:31.161Z,1003.67
2023-03-21T07:46:30.166Z,1003.69
2023-03-21T07:47:31.149Z,1003.68
2023-03-21T07:48:30.062Z,1003.68
2023-03-21T07:49:30.064Z,1003.71
2023-03-21T07:50:31.093Z,1003.68
2023-03-21T07:51:30.065Z,1003.69
2023-03-21T07:52:31.044Z,1003.69
2023-03-21T07:53:30.030Z,1003.72
2023-03-21T07:54:30.194Z,1003.69
2023-03-21T07:55:29.994Z,1003.73
2023-03-21T07:56:30.043Z,1003.74
2023-03-21T07:57:29.987Z,1003.68
2023-03-21T07:58:29.969Z,1003.68
2023-03-21T07:59:29.978Z,1003.64
2023-03-21T08:00:29.948Z,1003.68
2023-03-21T08:01:29.923Z,1003.65
2023-03-21T08:02:31.063Z,1003.64
2023-03-21T08:03:31.004Z,1003.68
2023-03-21T08:04:29.950Z,1003.60
2023-03-21T08:05:29.909Z,1003.69
2023-03-21T08:06:29.870Z,1003.62
2023-03-21T08:07:29.882Z,1003.65
2023-03-21T08:08:29.894Z,1003.69
2023-03-21T08:09:31.121Z,1003.75
2023-03-21T08:10:29.886Z,1003.72
2023-03-21T08:11:29.832Z,1003.67
2023-03-21T08:12:29.829Z,1003.70
2023-03-21T08:13:30.845Z,1003.69
2023-03-21T08:14:29.788Z,1003.68
2023-03-21T08:15:29.769Z,1003.65
2023-03-21T08:16:29.853Z,1003.68
2023-03-21T08:17:29.769Z,1003.71
2023-03-21T08:18:29.802Z,1003.68
2023-03-21T08:19:29.752Z,1003.67
2023-03-21T08:20:29.745Z,1003.70
2023-03-21T08:21:30.727Z,1003.70
2023-03-21T08:22:29.774Z,1003.71
2023-03-21T08:23:29.743Z,1003.75
2023-03-21T08:24:29.662Z,1003.80
2023-03-21T08:25:29.770Z,1003.72
2023-03-21T08:26:29.642Z,1003.75
2023-03-21T08:27:29.652Z,1003.75
2023-03-21T08:28:30.640Z,1003.75
2023-03-21T08:29:29.699Z,1003.76
2023-03-21T08:30:30.757Z,1003.82
2023-03-21T08:31:29.665Z,1003.81
2023-03-21T08:32:29.593Z,1003.78
2023-03-21T08:33:29.591Z,1003.79
2023-03-21T08:34:30.737Z,1003.75
2023-03-21T08:35:29.638Z,1003.80
2023-03-21T08:36:29.622Z,1003.76
2023-03-21T08:37:29.558Z,1003.80
2023-03-21T08:38:29.561Z,1003.78
2023-03-21T08:39:29.560Z,1003.78
2023-03-21T08:40:30.497Z,1003.79
2023-03-21T08:41:29.606Z,1003.78
2023-03-21T08:42:29.508Z,1003.79
2023-03-21T08:43:29.460Z,1003.74
2023-03-21T08:44:29.518Z,1003.77
2023-03-21T08:45:29.463Z,1003.77
2023-03-21T08:46:29.494Z,1003.75
2023-03-21T08:47:29.446Z,1003.77
2023-03-21T08:48:29.439Z,1003.75
2023-03-21T08:49:29.440Z,1003.73
2023-03-21T08:50:30.174Z,1003.75
2023-03-21T08:51:29.448Z,1003.75
2023-03-21T08:52:29.424Z,1003.70
2023-03-21T08:53:29.345Z,1003.71
2023-03-21T08:54:30.351Z,1003.76
2023-03-21T08:55:29.400Z,1003.71
2023-03-21T08:56:30.317Z,1003.76
2023-03-21T08:57:30.382Z,1003.68
2023-03-21T08:58:29.344Z,1003.73
2023-03-21T08:59:29.315Z,1003.63
2023-03-21T09:00:29.280Z,1003.68
2023-03-21T09:01:29.287Z,1003.73
2023-03-21T09:02:29.309Z,1003.70
2023-03-21T09:03:29.291Z,1003.71
2023-03-21T09:04:29.328Z,1003.73
2023-03-21T09:05:29.223Z,1003.68
2023-03-21T09:06:30.232Z,1003.70
2023-03-21T09:07:30.224Z,1003.68
2023-03-21T09:08:29.230Z,1003.70
2023-03-21T09:09:29.254Z,1003.66
2023-03-21T09:10:29.188Z,1003.67
2023-03-21T09:11:30.252Z,1003.67
2023-03-21T09:12:29.133Z,1003.64
2023-03-21T09:13:29.153Z,1003.60
2023-03-21T09:14:29.436Z,1003.62
2023-03-21T09:15:30.122Z,1003.62
2023-03-21T09:16:29.308Z,1003.57
2023-03-21T09:17:29.108Z,1003.62
2023-03-21T09:18:30.081Z,1003.61
2023-03-21T09:19:30.136Z,1003.62
2023-03-21T09:20:29.104Z,1003.60
2023-03-21T09:21:29.076Z,1003.66
2023-03-21T09:22:30.031Z,1003.57
2023-03-21T09:23:29.093Z,1003.62
2023-03-21T09:24:29.052Z,1003.62
2023-03-21T09:25:30.034Z,1003.66
2023-03-21T09:26:29.981Z,1003.61
2023-03-21T09:27:29.015Z,1003.58
2023-03-21T09:28:29.069Z,1003.61
2023-03-21T09:29:28.947Z,1003.59
2023-03-21T09:30:28.962Z,1003.59
2023-03-21T09:31:30.005Z,1003.61
2023-03-21T09:32:28.938Z,1003.61
2023-03-21T09:33:29.085Z,1003.61
2023-03-21T09:34:28.984Z,1003.60
2023-03-21T09:35:29.902Z,1003.52
2023-03-21T09:36:28.907Z,1003.58
2023-03-21T09:37:28.881Z,1003.52
2023-03-21T09:38:29.916Z,1003.57
2023-03-21T09:39:28.913Z,1003.54
2023-03-21T09:40:28.878Z,1003.53
2023-03-21T09:41:28.863Z,1003.57
2023-03-21T09:42:28.822Z,1003.57
2023-03-21T09:43:28.863Z,1003.60
2023-03-21T09:44:28.868Z,1003.53
2023-03-21T09:45:28.844Z,1003.51
2023-03-21T09:46:28.827Z,1003.52
2023-03-21T09:47:28.754Z,1003.49
2023-03-21T09:48:28.755Z,1003.49
2023-03-21T09:49:29.728Z,1003.50
2023-03-21T09:50:28.721Z,1003.51
2023-03-21T09:51:29.753Z,1003.47
2023-03-21T09:52:29.699Z,1003.41
2023-03-21T09:53:29.701Z,1003.42
2023-03-21T09:54:29.729Z,1003.42
2023-03-21T09:55:28.699Z,1003.33
2023-03-21T09:56:29.658Z,1003.44
2023-03-21T09:57:28.717Z,1003.36
2023-03-21T09:58:28.658Z,1003.46
2023-03-21T09:59:31.216Z,1003.38
2023-03-21T10:00:29.837Z,1003.34
2023-03-21T10:01:28.668Z,1003.30
2023-03-21T10:02:28.583Z,1003.26
2023-03-21T10:03:28.577Z,1003.25
2023-03-21T10:04:28.831Z,1003.23
2023-03-21T10:05:28.619Z,1003.24
2023-03-21T10:06:28.674Z,1003.22
2023-03-21T10:07:28.564Z,1003.16
2023-03-21T10:08:28.593Z,1003.21
2023-03-21T10:09:28.555Z,1003.15
2023-03-21T10:10:28.489Z,1003.21
2023-03-21T10:11:28.522Z,1003.19
2023-03-21T10:12:28.500Z,1003.25
2023-03-21T10:13:29.704Z,1003.19
2023-03-21T10:14:28.454Z,1003.20
2023-03-21T10:15:28.554Z,1003.19
2023-03-21T10:16:28.565Z,1003.16
2023-03-21T10:17:28.456Z,1003.19
2023-03-21T10:18:28.438Z,1003.13
2023-03-21T10:19:29.621Z,1003.16
2023-03-21T10:20:28.455Z,1003.12
2023-03-21T10:21:56.903Z,1003.14
2023-03-21T10:22:29.447Z,1003.15
2023-03-21T10:23:29.378Z,1003.09
2023-03-21T10:24:28.394Z,1003.08
2023-03-21T10:25:28.335Z,1003.09
2023-03-21T10:26:28.392Z,1003.04
2023-03-21T10:27:28.340Z,1003.00
2023-03-21T10:28:34.407Z,1003.03
2023-03-21T10:29:29.341Z,1003.00
2023-03-21T10:30:29.289Z,1002.99
2023-03-21T10:31:28.366Z,1002.98
2023-03-21T10:32:29.378Z,1002.89
2023-03-21T10:33:28.242Z,1002.99
2023-03-21T10:34:28.268Z,1002.98
2023-03-21T10:35:29.278Z,1002.94
2023-03-21T10:36:28.268Z,1002.94
2023-03-21T10:37:28.243Z,1002.96
2023-03-21T10:38:28.275Z,1002.96
2023-03-21T10:39:28.189Z,1002.96
2023-03-21T10:40:28.174Z,1002.93
2023-03-21T10:41:28.194Z,1002.98
2023-03-21T10:42:28.185Z,1002.92
2023-03-21T10:43:28.184Z,1002.87
2023-03-21T10:44:28.162Z,1002.98
2023-03-21T10:45:29.216Z,1002.96
2023-03-21T10:46:28.322Z,1002.97
2023-03-21T10:47:28.344Z,1002.94
2023-03-21T10:48:28.181Z,1002.90
2023-03-21T10:49:28.121Z,1002.94
2023-03-21T10:50:28.197Z,1002.91
2023-03-21T10:51:28.067Z,1002.83
2023-03-21T10:52:28.046Z,1002.86
2023-03-21T10:53:28.039Z,1002.88
2023-03-21T10:54:28.051Z,1002.88
2023-03-21T10:55:28.009Z,1002.87
2023-03-21T10:56:28.061Z,1002.87
2023-03-21T10:57:27.990Z,1002.85
2023-03-21T10:58:28.970Z,1002.82
2023-03-21T10:59:28.983Z,1002.86
2023-03-21T11:00:27.992Z,1002.82
2023-03-21T11:01:27.985Z,1002.83
2023-03-21T11:02:28.051Z,1002.83
2023-03-21T11:03:27.916Z,1002.83
2023-03-21T11:04:27.919Z,1002.81
2023-03-21T11:05:27.932Z,1002.86
2023-03-21T11:06:27.921Z,1002.83
2023-03-21T11:07:28.884Z,1002.80
2023-03-21T11:08:27.878Z,1002.77
2023-03-21T11:09:28.890Z,1002.78
2023-03-21T11:10:29.315Z,1002.78
2023-03-21T11:11:27.902Z,1002.71
2023-03-21T11:12:27.820Z,1002.75
2023-03-21T11:13:27.818Z,1002.78
2023-03-21T11:14:27.828Z,1002.85
2023-03-21T11:15:27.873Z,1002.82
2023-03-21T11:16:27.879Z,1002.72
2023-03-21T11:17:27.863Z,1002.74
2023-03-21T11:18:27.757Z,1002.70
2023-03-21T11:19:27.777Z,1002.71
2023-03-21T11:20:27.736Z,1002.66
2023-03-21T11:21:29.736Z,1002.68
2023-03-21T11:22:27.745Z,1002.64
2023-03-21T11:23:28.716Z,1002.68
2023-03-21T11:24:27.698Z,1002.65
2023-03-21T11:25:27.674Z,1002.61
2023-03-21T11:26:28.681Z,1002.58
2023-03-21T11:27:28.694Z,1002.63
2023-03-21T11:28:27.678Z,1002.59
2023-03-21T11:29:27.642Z,1002.58
2023-03-21T11:30:27.735Z,1002.60
2023-03-21T11:31:27.646Z,1002.55
2023-03-21T11:32:27.596Z,1002.56
2023-03-21T11:33:27.624Z,1002.54
2023-03-21T11:34:27.577Z,1002.52
2023-03-21T11:35:27.568Z,1002.56
2023-03-21T11:36:27.564Z,1002.63
2023-03-21T11:37:28.670Z,1002.53
2023-03-21T11:38:27.540Z,1002.49
2023-03-21T11:39:27.567Z,1002.58
2023-03-21T11:40:27.509Z,1002.53
2023-03-21T11:41:27.495Z,1002.55
2023-03-21T11:42:27.500Z,1002.53
2023-03-21T11:43:27.517Z,1002.56
2023-03-21T11:44:27.522Z,1002.56
2023-03-21T11:45:27.495Z,1002.53
2023-03-21T11:46:35.239Z,1002.54
2023-03-21T11:47:27.426Z,1002.44
2023-03-21T11:48:28.463Z,1002.43
2023-03-21T11:49:27.420Z,1002.43
2023-03-21T11:50:28.462Z,1002.40
2023-03-21T11:51:27.423Z,1002.44
2023-03-21T11:52:28.376Z,1002.38
2023-03-21T11:53:27.392Z,1002.34
2023-03-21T11:54:27.363Z,1002.34
2023-03-21T11:55:27.404Z,1002.35
2023-03-21T11:56:27.360Z,1002.33
2023-03-21T11:57:27.322Z,1002.30
2023-03-21T11:58:27.366Z,1002.29
2023-03-21T11:59:28.340Z,1002.23
2023-03-21T12:00:28.296Z,1002.18
2023-03-21T12:01:27.278Z,1002.22
2023-03-21T12:02:27.394Z,1002.17
2023-03-21T12:03:28.864Z,1002.22
2023-03-21T12:04:27.432Z,1002.18
2023-03-21T12:05:28.241Z,1002.17
2023-03-21T12:06:27.227Z,1002.12
2023-03-21T12:07:27.216Z,1002.15